createdAt,value
2019-03-15T00:01:36.764Z,20.66
2019-03-15T00:04:05.221Z,20.65
2019-03-15T00:06:33.707Z,20.65
2019-03-15T00:09:02.105Z,20.65
2019-03-15T00:11:30.495Z,20.64
2019-03-15T00:13:58.897Z,20.65
2019-03-15T00:16:27.378Z,20.64
2019-03-15T00:18:55.833Z,20.64
2019-03-15T00:21:24.212Z,20.64
2019-03-15T00:23:52.595Z,20.64
2019-03-15T00:26:21.188Z,20.64
2019-03-15T00:28:49.620Z,20.64
2019-03-15T00:31:17.999Z,20.64
2019-03-15T00:33:46.469Z,20.64
2019-03-15T00:36:14.865Z,20.64
2019-03-15T00:38:43.265Z,20.63
2019-03-15T00:41:11.714Z,20.64
2019-03-15T00:43:40.106Z,20.64
2019-03-15T00:46:08.487Z,20.63
2019-03-15T00:48:36.878Z,20.65
2019-03-15T00:51:05.348Z,20.64
2019-03-15T00:53:33.736Z,20.65
2019-03-15T00:56:02.125Z,20.64
2019-03-15T00:58:30.590Z,20.65
2019-03-15T01:00:58.966Z,20.65
2019-03-15T01:03:27.395Z,20.64
2019-03-15T01:05:55.794Z,20.66
2019-03-15T01:08:24.320Z,20.66
2019-03-15T01:10:52.713Z,20.65
2019-03-15T01:13:21.145Z,20.66
2019-03-15T01:15:49.536Z,20.66
2019-03-15T01:18:18.445Z,20.66
2019-03-15T01:20:47.023Z,20.66
2019-03-15T01:23:15.418Z,20.67
2019-03-15T01:25:43.848Z,20.65
2019-03-15T01:28:12.283Z,20.67
2019-03-15T01:30:40.699Z,20.66
2019-03-15T01:33:09.121Z,20.67
2019-03-15T01:35:37.504Z,20.67
2019-03-15T01:38:05.932Z,20.66
2019-03-15T01:40:34.320Z,20.67
2019-03-15T01:43:02.752Z,20.67
2019-03-15T01:45:31.138Z,20.67
2019-03-15T01:47:59.542Z,20.67
2019-03-15T01:50:27.923Z,20.67
2019-03-15T01:52:56.329Z,20.67
2019-03-15T01:55:24.720Z,20.67
2019-03-15T01:57:53.135Z,20.67
2019-03-15T02:00:21.703Z,20.67
2019-03-15T02:02:50.141Z,20.68
2019-03-15T02:05:18.569Z,20.69
2019-03-15T02:07:46.931Z,20.68
2019-03-15T02:10:15.312Z,20.68
2019-03-15T02:12:43.794Z,20.68
2019-03-15T02:15:12.355Z,20.69
2019-03-15T02:17:40.752Z,20.68
2019-03-15T02:20:09.730Z,20.68
2019-03-15T02:22:38.187Z,20.70
2019-03-15T02:25:06.569Z,20.69
2019-03-15T02:27:35.089Z,20.70
2019-03-15T02:30:04.207Z,20.70
2019-03-15T02:32:34.335Z,20.69
2019-03-15T02:35:02.756Z,20.69
2019-03-15T02:37:31.141Z,20.69
2019-03-15T02:39:59.526Z,20.69
2019-03-15T02:42:27.919Z,20.68
2019-03-15T02:44:56.310Z,20.70
2019-03-15T02:47:24.701Z,20.69
2019-03-15T02:49:53.234Z,20.70
2019-03-15T02:52:21.653Z,20.70
2019-03-15T02:54:50.054Z,20.69
2019-03-15T02:57:18.434Z,20.70
2019-03-15T02:59:47.428Z,20.68
2019-03-15T03:02:16.095Z,20.69
2019-03-15T03:04:44.565Z,20.70
2019-03-15T03:07:12.949Z,20.69
2019-03-15T03:09:41.349Z,20.69
2019-03-15T03:12:09.764Z,20.69
2019-03-15T03:14:38.388Z,20.68
2019-03-15T03:17:06.842Z,20.69
2019-03-15T03:19:35.218Z,20.69
2019-03-15T03:22:03.609Z,20.69
2019-03-15T03:24:31.998Z,20.69
2019-03-15T03:27:00.401Z,20.70
2019-03-15T03:29:28.798Z,20.70
2019-03-15T03:31:57.257Z,20.70
2019-03-15T03:34:25.646Z,20.70
2019-03-15T03:36:57.821Z,20.70
2019-03-15T03:39:24.749Z,20.69
2019-03-15T03:41:53.107Z,20.69
2019-03-15T03:44:21.498Z,20.68
2019-03-15T03:46:49.879Z,20.68
2019-03-15T03:49:18.270Z,20.68
2019-03-15T03:51:46.674Z,20.67
2019-03-15T03:54:15.088Z,20.67
2019-03-15T03:56:43.669Z,20.67
2019-03-15T03:59:12.094Z,20.67
2019-03-15T04:01:40.508Z,20.67
2019-03-15T04:04:08.931Z,20.67
2019-03-15T04:06:37.405Z,20.68
2019-03-15T04:09:07.687Z,20.68
2019-03-15T04:11:36.071Z,20.67
2019-03-15T04:14:04.493Z,20.67
2019-03-15T04:16:32.888Z,20.68
2019-03-15T04:19:01.301Z,20.68
2019-03-15T04:21:29.756Z,20.67
2019-03-15T04:23:58.165Z,20.67
2019-03-15T04:26:26.542Z,20.67
2019-03-15T04:28:57.017Z,20.68
2019-03-15T04:31:25.085Z,20.68
2019-03-15T04:33:53.492Z,20.67
2019-03-15T04:36:21.898Z,20.67
2019-03-15T04:38:50.341Z,20.67
2019-03-15T04:41:18.738Z,20.67
2019-03-15T04:43:47.170Z,20.66
2019-03-15T04:46:15.558Z,20.67
2019-03-15T04:48:43.980Z,20.66
2019-03-15T04:51:12.366Z,20.67
2019-03-15T04:53:40.783Z,20.67
2019-03-15T04:56:09.159Z,20.66
2019-03-15T04:58:37.584Z,20.66
2019-03-15T05:01:05.982Z,20.67
2019-03-15T05:03:34.507Z,20.67
2019-03-15T05:06:04.024Z,20.68
2019-03-15T05:08:32.650Z,20.68
2019-03-15T05:11:01.060Z,20.67
2019-03-15T05:13:29.558Z,20.67
2019-03-15T05:15:57.920Z,20.66
2019-03-15T05:18:26.311Z,20.67
2019-03-15T05:20:54.701Z,20.68
2019-03-15T05:23:23.102Z,20.68
2019-03-15T05:25:51.488Z,20.69
2019-03-15T05:28:19.902Z,20.67
2019-03-15T05:30:48.300Z,20.68
2019-03-15T05:33:16.677Z,20.69
2019-03-15T05:35:45.064Z,20.69
2019-03-15T05:38:13.449Z,20.69
2019-03-15T05:40:41.842Z,20.70
2019-03-15T05:43:10.231Z,20.70
2019-03-15T05:45:38.624Z,20.71
2019-03-15T05:48:07.010Z,20.70
2019-03-15T05:50:35.401Z,20.72
2019-03-15T05:53:03.891Z,20.71
2019-03-15T05:55:32.282Z,20.72
2019-03-15T05:58:00.669Z,20.71
2019-03-15T06:00:29.101Z,20.72
2019-03-15T06:02:57.564Z,20.70
2019-03-15T06:05:25.952Z,20.70
2019-03-15T06:07:54.344Z,20.70
2019-03-15T06:10:22.741Z,20.70
2019-03-15T06:12:51.119Z,20.70
2019-03-15T06:15:19.512Z,20.69
2019-03-15T06:17:47.897Z,20.70
2019-03-15T06:20:16.293Z,20.70
2019-03-15T06:22:44.684Z,20.70
2019-03-15T06:25:13.086Z,20.70
2019-03-15T06:27:41.487Z,20.70
2019-03-15T06:30:12.574Z,20.70
2019-03-15T06:32:40.960Z,20.70
2019-03-15T06:35:09.432Z,20.68
2019-03-15T06:37:38.401Z,20.68
2019-03-15T06:40:08.818Z,20.67
2019-03-15T06:42:37.215Z,20.67
2019-03-15T06:45:08.975Z,20.67
2019-03-15T06:47:37.366Z,20.67
2019-03-15T06:50:07.424Z,20.67
2019-03-15T06:52:35.833Z,20.65
2019-03-15T06:55:05.695Z,20.66
2019-03-15T06:57:34.102Z,20.65
2019-03-15T07:00:02.585Z,20.66
2019-03-15T07:02:31.909Z,20.65
2019-03-15T07:05:00.322Z,20.64
2019-03-15T07:07:28.710Z,20.65
2019-03-15T07:09:57.128Z,20.67
2019-03-15T07:12:25.518Z,20.67
2019-03-15T07:14:53.966Z,20.67
2019-03-15T07:17:22.382Z,20.65
2019-03-15T07:19:50.799Z,20.66
2019-03-15T07:22:20.160Z,20.65
2019-03-15T07:24:48.689Z,20.65
2019-03-15T07:27:17.078Z,20.65
2019-03-15T07:29:45.534Z,20.66
2019-03-15T07:32:13.979Z,20.67
2019-03-15T07:34:42.413Z,20.67
2019-03-15T07:37:10.884Z,20.66
2019-03-15T07:39:39.422Z,20.67
2019-03-15T07:42:07.903Z,20.68
2019-03-15T07:44:36.503Z,20.69
2019-03-15T07:47:04.962Z,20.70
2019-03-15T07:49:33.454Z,20.71
2019-03-15T07:52:03.943Z,20.73
2019-03-15T07:54:38.005Z,20.73
2019-03-15T07:57:02.074Z,20.73
2019-03-15T07:59:30.471Z,20.75
2019-03-15T08:01:58.869Z,20.75
2019-03-15T08:04:28.045Z,20.77
2019-03-15T08:06:56.565Z,20.77
2019-03-15T08:09:24.958Z,20.78
2019-03-15T08:11:53.399Z,20.80
2019-03-15T08:14:21.838Z,20.81
2019-03-15T08:16:50.230Z,20.82
2019-03-15T08:19:18.620Z,20.82
2019-03-15T08:21:47.119Z,20.83
2019-03-15T08:24:15.509Z,20.83
2019-03-15T08:26:43.975Z,20.83
2019-03-15T08:29:12.353Z,20.85
2019-03-15T08:31:40.754Z,20.86
2019-03-15T08:34:09.157Z,20.87
2019-03-15T08:36:37.546Z,20.89
2019-03-15T08:39:06.768Z,20.90
2019-03-15T08:41:35.167Z,20.90
2019-03-15T08:44:03.621Z,20.91
2019-03-15T08:46:32.015Z,20.93
2019-03-15T08:49:00.505Z,20.95
2019-03-15T08:51:28.895Z,20.95
2019-03-15T08:53:57.289Z,20.97
2019-03-15T08:56:25.675Z,20.97
2019-03-15T08:58:57.251Z,20.96
2019-03-15T09:01:25.648Z,20.96
2019-03-15T09:03:54.038Z,20.96
2019-03-15T09:06:22.500Z,20.98
2019-03-15T09:08:50.958Z,21.01
2019-03-15T09:11:19.352Z,21.02
2019-03-15T09:13:49.238Z,21.04
2019-03-15T09:16:17.991Z,21.04
2019-03-15T09:18:46.382Z,21.07
2019-03-15T09:21:14.797Z,21.09
2019-03-15T09:23:43.237Z,21.16
2019-03-15T09:26:11.616Z,21.18
2019-03-15T09:28:40.000Z,21.26
2019-03-15T09:31:08.394Z,21.31
2019-03-15T09:33:36.792Z,21.36
2019-03-15T09:36:05.201Z,21.53
2019-03-15T09:38:33.590Z,21.58
2019-03-15T09:41:02.024Z,21.68
2019-03-15T09:43:30.406Z,21.68
2019-03-15T09:45:58.830Z,21.71
2019-03-15T09:48:27.291Z,21.74
2019-03-15T09:50:55.724Z,21.76
2019-03-15T09:53:24.108Z,21.81
2019-03-15T09:55:52.537Z,21.81
2019-03-15T09:58:20.930Z,21.84
2019-03-15T10:00:49.362Z,21.86
2019-03-15T10:03:22.406Z,21.84
2019-03-15T10:05:48.024Z,21.83
2019-03-15T10:08:17.501Z,21.82
2019-03-15T10:10:48.976Z,21.78
2019-03-15T10:13:16.122Z,21.76
2019-03-15T10:15:44.688Z,21.76
2019-03-15T10:18:13.149Z,21.76
2019-03-15T10:20:41.701Z,21.79
2019-03-15T10:23:10.112Z,21.82
2019-03-15T10:25:46.619Z,21.84
2019-03-15T10:28:08.805Z,21.85
2019-03-15T10:30:37.190Z,21.84
2019-03-15T10:33:05.580Z,21.82
2019-03-15T10:35:33.981Z,21.77
2019-03-15T10:38:02.479Z,21.73
2019-03-15T10:40:30.865Z,21.70
2019-03-15T10:42:59.263Z,21.67
2019-03-15T10:45:27.653Z,21.65
2019-03-15T10:47:56.053Z,21.65
2019-03-15T10:50:24.443Z,21.63
2019-03-15T10:52:53.982Z,21.63
2019-03-15T10:55:22.598Z,21.64
2019-03-15T10:57:51.008Z,21.64
2019-03-15T11:00:20.401Z,21.63
2019-03-15T11:02:49.088Z,21.63
2019-03-15T11:05:17.493Z,21.62
2019-03-15T11:07:46.084Z,21.62
2019-03-15T11:10:14.946Z,21.60
2019-03-15T11:12:43.351Z,21.59
2019-03-15T11:15:12.990Z,21.57
2019-03-15T11:17:41.412Z,21.57
2019-03-15T11:20:10.945Z,21.58
2019-03-15T11:22:39.366Z,21.60
2019-03-15T11:25:10.029Z,21.64
2019-03-15T11:27:38.433Z,21.88
2019-03-15T11:30:08.960Z,21.96
2019-03-15T11:32:37.355Z,21.98
2019-03-15T11:35:08.082Z,21.94
2019-03-15T11:37:36.483Z,21.90
2019-03-15T11:40:10.363Z,21.85
2019-03-15T11:42:39.044Z,21.79
2019-03-15T11:45:09.173Z,21.75
2019-03-15T11:48:00.522Z,21.71
2019-03-15T11:50:18.874Z,21.72
2019-03-15T11:52:47.338Z,21.73
2019-03-15T11:55:15.821Z,21.96
2019-03-15T11:57:44.218Z,22.13
2019-03-15T12:00:15.206Z,22.21
2019-03-15T12:02:43.604Z,22.60
2019-03-15T12:05:12.036Z,22.93
2019-03-15T12:07:40.430Z,23.48
2019-03-15T12:10:14.010Z,23.83
2019-03-15T12:12:42.396Z,24.60
2019-03-15T12:15:16.972Z,25.45
2019-03-15T12:17:45.357Z,25.92
2019-03-15T12:20:14.161Z,26.72
2019-03-15T12:22:42.590Z,27.15
2019-03-15T12:25:11.705Z,27.36
2019-03-15T12:27:40.108Z,27.83
2019-03-15T12:30:16.209Z,27.58
2019-03-15T12:32:44.644Z,27.20
2019-03-15T12:35:13.964Z,26.88
2019-03-15T12:37:42.382Z,26.88
2019-03-15T12:40:16.059Z,27.12
2019-03-15T12:42:46.208Z,27.71
2019-03-15T12:45:15.331Z,28.49
2019-03-15T12:47:43.740Z,28.42
2019-03-15T12:50:14.083Z,28.21
2019-03-15T12:52:47.664Z,27.93
2019-03-15T12:55:13.570Z,27.51
2019-03-15T12:57:42.107Z,27.05
2019-03-15T13:00:17.733Z,26.59
2019-03-15T13:02:46.168Z,26.20
2019-03-15T13:05:14.553Z,25.81
2019-03-15T13:07:42.976Z,25.50
2019-03-15T13:10:16.645Z,25.20
2019-03-15T13:12:45.040Z,24.93
2019-03-15T13:15:15.534Z,24.68
2019-03-15T13:17:43.991Z,24.51
2019-03-15T13:20:16.163Z,24.30
2019-03-15T13:22:44.558Z,24.13
2019-03-15T13:25:13.213Z,23.98
2019-03-15T13:27:41.605Z,23.87
2019-03-15T13:30:14.909Z,23.79
2019-03-15T13:32:43.299Z,23.86
2019-03-15T13:35:12.058Z,24.92
2019-03-15T13:37:42.890Z,26.36
2019-03-15T13:40:15.847Z,27.73
2019-03-15T13:42:44.288Z,28.43
2019-03-15T13:45:13.696Z,28.37
2019-03-15T13:47:42.147Z,27.91
2019-03-15T13:50:12.834Z,27.44
2019-03-15T13:52:41.239Z,26.96
2019-03-15T13:55:09.623Z,26.66
2019-03-15T13:57:38.032Z,26.25
2019-03-15T14:00:13.889Z,26.15
2019-03-15T14:02:42.305Z,26.16
2019-03-15T14:05:10.776Z,26.19
2019-03-15T14:07:39.216Z,25.85
2019-03-15T14:10:12.895Z,25.58
2019-03-15T14:12:41.298Z,25.33
2019-03-15T14:15:17.472Z,25.05
2019-03-15T14:17:45.903Z,24.79
2019-03-15T14:20:14.376Z,24.60
2019-03-15T14:22:42.792Z,24.45
2019-03-15T14:25:19.234Z,24.31
2019-03-15T14:27:47.649Z,24.16
2019-03-15T14:30:16.088Z,24.00
2019-03-15T14:32:44.518Z,23.86
2019-03-15T14:35:13.018Z,23.72
2019-03-15T14:37:41.558Z,23.54
2019-03-15T14:40:13.710Z,23.46
2019-03-15T14:42:42.120Z,23.33
2019-03-15T14:45:15.802Z,23.22
2019-03-15T14:47:44.319Z,23.14
2019-03-15T14:50:13.847Z,23.06
2019-03-15T14:52:42.263Z,22.95
2019-03-15T14:55:11.786Z,22.88
2019-03-15T14:57:51.431Z,22.82
2019-03-15T15:00:15.308Z,22.75
2019-03-15T15:02:43.732Z,22.69
2019-03-15T15:05:14.798Z,22.64
2019-03-15T15:07:43.184Z,22.59
2019-03-15T15:10:15.516Z,22.54
2019-03-15T15:12:43.933Z,22.50
2019-03-15T15:15:14.814Z,22.46
2019-03-15T15:17:43.366Z,22.43
2019-03-15T15:20:12.426Z,22.38
2019-03-15T15:22:40.834Z,22.35
2019-03-15T15:25:11.539Z,22.30
2019-03-15T15:27:39.923Z,22.24
2019-03-15T15:30:10.654Z,22.21
2019-03-15T15:32:39.040Z,22.17
2019-03-15T15:35:09.069Z,22.13
2019-03-15T15:37:37.464Z,22.09
2019-03-15T15:40:11.404Z,22.06
2019-03-15T15:42:39.787Z,22.04
2019-03-15T15:45:09.921Z,22.02
2019-03-15T15:47:38.311Z,21.98
2019-03-15T15:50:09.047Z,21.96
2019-03-15T15:52:37.436Z,21.93
2019-03-15T15:55:14.035Z,21.91
2019-03-15T15:57:42.425Z,21.87
2019-03-15T16:00:15.358Z,21.84
2019-03-15T16:02:43.846Z,21.81
2019-03-15T16:05:12.238Z,21.77
2019-03-15T16:07:40.636Z,21.75
2019-03-15T16:10:12.198Z,21.74
2019-03-15T16:12:40.592Z,21.71
2019-03-15T16:15:15.154Z,21.69
2019-03-15T16:17:45.425Z,21.66
2019-03-15T16:20:13.719Z,21.63
2019-03-15T16:22:42.132Z,21.63
2019-03-15T16:25:11.476Z,21.58
2019-03-15T16:27:39.862Z,21.56
2019-03-15T16:30:19.351Z,21.54
2019-03-15T16:32:47.744Z,21.52
2019-03-15T16:35:16.135Z,21.50
2019-03-15T16:37:44.520Z,21.50
2019-03-15T16:40:15.099Z,21.47
2019-03-15T16:42:43.507Z,21.45
2019-03-15T16:45:23.209Z,21.43
2019-03-15T16:47:51.624Z,21.42
2019-03-15T16:50:20.069Z,21.39
2019-03-15T16:52:48.452Z,21.38
2019-03-15T16:55:16.839Z,21.36
2019-03-15T16:57:45.231Z,21.34
2019-03-15T17:00:15.794Z,21.32
2019-03-15T17:02:44.176Z,21.30
2019-03-15T17:05:13.312Z,21.29
2019-03-15T17:07:42.032Z,21.27
2019-03-15T17:10:18.810Z,21.25
2019-03-15T17:12:47.204Z,21.24
2019-03-15T17:15:21.199Z,21.22
2019-03-15T17:17:49.589Z,21.21
2019-03-15T17:20:18.093Z,21.20
2019-03-15T17:22:46.481Z,21.18
2019-03-15T17:25:14.883Z,21.18
2019-03-15T17:27:43.268Z,21.17
2019-03-15T17:30:16.668Z,21.17
2019-03-15T17:32:45.050Z,21.16
2019-03-15T17:35:17.634Z,21.14
2019-03-15T17:37:46.248Z,21.14
2019-03-15T17:40:21.795Z,21.14
2019-03-15T17:42:50.423Z,21.13
2019-03-15T17:45:18.824Z,21.13
2019-03-15T17:47:47.351Z,21.12
2019-03-15T17:50:23.549Z,21.12
2019-03-15T17:52:51.928Z,21.12
2019-03-15T17:55:20.369Z,21.10
2019-03-15T17:57:48.760Z,21.11
2019-03-15T18:00:20.628Z,21.09
2019-03-15T18:02:49.036Z,21.11
2019-03-15T18:05:17.501Z,21.08
2019-03-15T18:07:45.882Z,21.08
2019-03-15T18:10:14.304Z,21.07
2019-03-15T18:12:42.697Z,21.06
2019-03-15T18:15:11.390Z,21.06
2019-03-15T18:17:39.836Z,21.04
2019-03-15T18:20:09.220Z,21.03
2019-03-15T18:22:37.624Z,21.04
2019-03-15T18:25:10.147Z,21.03
2019-03-15T18:27:39.876Z,21.01
2019-03-15T18:30:16.253Z,21.01
2019-03-15T18:32:44.640Z,21.02
2019-03-15T18:35:13.211Z,21.01
2019-03-15T18:37:41.610Z,21.01
2019-03-15T18:40:15.364Z,21.01
2019-03-15T18:42:43.880Z,21.00
2019-03-15T18:45:14.678Z,21.00
2019-03-15T18:47:43.067Z,20.99
2019-03-15T18:50:20.163Z,20.99
2019-03-15T18:52:48.639Z,20.98
2019-03-15T18:55:17.044Z,20.98
2019-03-15T18:57:46.845Z,20.98
2019-03-15T19:00:26.181Z,20.98
2019-03-15T19:02:54.621Z,20.98
2019-03-15T19:05:23.009Z,20.97
2019-03-15T19:07:51.408Z,20.98
2019-03-15T19:10:19.805Z,21.00
2019-03-15T19:12:48.298Z,21.02
2019-03-15T19:15:19.074Z,21.04
2019-03-15T19:17:47.824Z,21.04
2019-03-15T19:20:17.153Z,21.04
2019-03-15T19:22:45.539Z,21.04
2019-03-15T19:25:14.906Z,21.02
2019-03-15T19:27:43.295Z,21.04
2019-03-15T19:30:16.616Z,21.04
2019-03-15T19:32:45.008Z,21.05
2019-03-15T19:35:13.441Z,21.03
2019-03-15T19:37:41.916Z,21.01
2019-03-15T19:40:14.993Z,21.00
2019-03-15T19:42:45.176Z,21.00
2019-03-15T19:45:17.484Z,20.99
2019-03-15T19:47:45.859Z,20.98
2019-03-15T19:50:19.418Z,20.95
2019-03-15T19:52:47.875Z,20.95
2019-03-15T19:55:16.726Z,20.93
2019-03-15T19:57:45.114Z,20.91
2019-03-15T20:00:17.896Z,20.90
2019-03-15T20:02:46.294Z,20.91
2019-03-15T20:05:14.723Z,20.90
2019-03-15T20:07:43.351Z,20.89
2019-03-15T20:10:16.317Z,20.88
2019-03-15T20:12:44.361Z,20.87
2019-03-15T20:15:16.641Z,20.87
2019-03-15T20:17:45.037Z,20.85
2019-03-15T20:20:14.905Z,20.85
2019-03-15T20:22:43.311Z,20.86
2019-03-15T20:25:13.164Z,20.82
2019-03-15T20:27:41.620Z,20.82
2019-03-15T20:30:21.003Z,20.81
2019-03-15T20:32:45.295Z,20.81
2019-03-15T20:35:13.684Z,20.80
2019-03-15T20:37:42.067Z,20.80
2019-03-15T20:40:12.149Z,20.77
2019-03-15T20:42:40.539Z,20.77
2019-03-15T20:45:22.955Z,20.79
2019-03-15T20:47:51.343Z,20.75
2019-03-15T20:50:19.744Z,20.76
2019-03-15T20:52:48.152Z,20.75
2019-03-15T20:55:16.541Z,20.75
2019-03-15T20:57:45.602Z,20.75
2019-03-15T21:00:16.800Z,20.75
2019-03-15T21:02:45.287Z,20.74
2019-03-15T21:05:13.678Z,20.74
2019-03-15T21:07:43.654Z,20.73
2019-03-15T21:10:13.889Z,20.74
2019-03-15T21:12:42.289Z,20.73
2019-03-15T21:15:12.265Z,20.72
2019-03-15T21:17:40.675Z,20.73
2019-03-15T21:20:14.507Z,20.72
2019-03-15T21:22:42.904Z,20.73
2019-03-15T21:25:11.454Z,20.72
2019-03-15T21:27:52.981Z,20.70
2019-03-15T21:30:18.451Z,20.72
2019-03-15T21:32:46.856Z,20.70
2019-03-15T21:35:15.384Z,20.72
2019-03-15T21:37:43.882Z,20.71
2019-03-15T21:40:13.512Z,20.70
2019-03-15T21:42:41.906Z,20.68
2019-03-15T21:45:11.355Z,20.68
2019-03-15T21:47:39.755Z,20.70
2019-03-15T21:50:13.542Z,20.69
2019-03-15T21:52:41.978Z,20.69
2019-03-15T21:55:10.395Z,20.68
2019-03-15T21:57:38.906Z,20.68
2019-03-15T22:00:10.642Z,20.66
2019-03-15T22:02:39.054Z,20.67
2019-03-15T22:05:08.421Z,20.68
2019-03-15T22:07:37.943Z,20.68
2019-03-15T22:10:09.601Z,20.69
2019-03-15T22:12:38.099Z,20.67
2019-03-15T22:15:08.380Z,20.66
2019-03-15T22:17:36.994Z,20.66
2019-03-15T22:20:11.264Z,20.69
2019-03-15T22:22:39.792Z,20.69
2019-03-15T22:25:08.959Z,20.68
2019-03-15T22:27:37.459Z,20.68
2019-03-15T22:30:13.225Z,20.69
2019-03-15T22:32:41.642Z,20.68
2019-03-15T22:35:10.031Z,20.68
2019-03-15T22:37:38.495Z,20.64
2019-03-15T22:40:08.878Z,20.67
2019-03-15T22:42:37.544Z,20.66
2019-03-15T22:45:10.316Z,20.66
2019-03-15T22:47:38.712Z,20.67
2019-03-15T22:50:08.812Z,20.66
2019-03-15T22:52:37.222Z,20.65
2019-03-15T22:55:07.252Z,20.65
2019-03-15T22:57:35.678Z,20.64
2019-03-15T23:00:10.123Z,20.65
2019-03-15T23:02:38.609Z,20.65
2019-03-15T23:05:07.015Z,20.65
2019-03-15T23:07:35.425Z,20.65
2019-03-15T23:10:04.368Z,20.65
2019-03-15T23:12:32.774Z,20.65
2019-03-15T23:15:01.172Z,20.65
2019-03-15T23:17:29.612Z,20.65
2019-03-15T23:19:57.996Z,20.64
2019-03-15T23:22:26.427Z,20.65
2019-03-15T23:24:54.821Z,20.64
2019-03-15T23:27:23.224Z,20.62
2019-03-15T23:29:51.616Z,20.63
2019-03-15T23:32:20.028Z,20.63
2019-03-15T23:34:48.446Z,20.63
2019-03-15T23:37:16.877Z,20.63
2019-03-15T23:39:45.297Z,20.64
2019-03-15T23:42:13.812Z,20.64
2019-03-15T23:44:42.256Z,20.64
2019-03-15T23:47:10.665Z,20.62
2019-03-15T23:49:39.058Z,20.63
2019-03-15T23:52:07.475Z,20.63
2019-03-15T23:54:35.876Z,20.62
2019-03-15T23:57:04.392Z,20.62
2019-03-15T23:59:32.780Z,20.60
